Time;durP1;ratioP1;P1;durP2;ratioP2;P2;SDS_P1;SDS_P2;PMS_P1;PMS_P2;Temp;Humidity;BMP_temperature;BMP_pressure;BME280_temperature;BME280_humidity;BME280_pressure;Samples;Min_cycle;Max_cycle;Signal;HPM_P1;HPM_P2
2022/06/12 00:01:14;;;;;;;0.60;0.38;;;23.70;96.70;;;;;;5069805;28;20093;-90
2022/06/12 00:03:42;;;;;;;1.60;0.40;;;23.80;96.70;;;;;;5066187;28;20139;-88
2022/06/12 00:06:18;;;;;;;2.65;0.57;;;23.80;96.70;;;;;;5062708;28;20043;-89
2022/06/12 00:08:47;;;;;;;1.98;0.50;;;23.70;96.70;;;;;;5070137;28;20048;-88
2022/06/12 00:11:24;;;;;;;3.80;0.70;;;23.70;96.70;;;;;;5063488;28;20619;-88
2022/06/12 00:13:58;;;;;;;2.15;0.80;;;23.80;96.70;;;;;;5053247;28;20050;-89
2022/06/12 00:16:30;;;;;;;1.95;0.47;;;23.60;96.70;;;;;;5064517;28;20041;-89
2022/06/12 00:18:59;;;;;;;3.15;0.60;;;23.50;96.70;;;;;;5057583;28;20040;-91
2022/06/12 00:21:31;;;;;;;1.67;0.60;;;23.60;96.70;;;;;;5079988;28;20043;-89
2022/06/12 00:24:02;;;;;;;2.03;0.40;;;23.60;96.70;;;;;;5085334;28;20044;-90
2022/06/12 00:26:33;;;;;;;1.02;0.57;;;23.60;96.70;;;;;;5104693;28;20071;-88
2022/06/12 00:29:04;;;;;;;2.05;0.40;;;23.50;96.70;;;;;;5079245;28;20531;-89
2022/06/12 00:31:36;;;;;;;1.98;0.60;;;23.40;96.70;;;;;;5066658;28;20262;-90
2022/06/12 00:34:05;;;;;;;1.20;0.60;;;23.20;96.70;;;;;;5067583;28;20051;-88
2022/06/12 00:36:34;;;;;;;2.47;0.40;;;23.10;96.70;;;;;;5080604;28;20105;-89
2022/06/12 00:39:05;;;;;;;1.17;0.60;;;23.10;96.70;;;;;;5110858;28;20048;-88
2022/06/12 00:41:34;;;;;;;1.45;0.60;;;23.20;96.70;;;;;;5084911;28;20043;-91
2022/06/12 00:44:02;;;;;;;0.80;0.70;;;23.10;96.70;;;;;;5101587;28;20071;-91
2022/06/12 00:46:39;;;;;;;2.40;0.68;;;23.20;96.70;;;;;;5084510;28;20408;-91
2022/06/12 00:49:10;;;;;;;2.15;0.60;;;23.20;96.70;;;;;;5071244;28;20054;-91
2022/06/12 00:51:38;;;;;;;1.25;0.82;;;23.30;96.70;;;;;;5072340;28;20066;-91
2022/06/12 00:54:08;;;;;;;1.27;0.63;;;23.10;96.70;;;;;;5071483;28;20052;-89
2022/06/12 00:56:42;;;;;;;2.45;0.60;;;22.90;96.70;;;;;;5065274;28;20052;-90
2022/06/12 00:59:14;;;;;;;2.85;0.73;;;23.00;96.70;;;;;;5073866;28;20071;-89
2022/06/12 01:01:46;;;;;;;1.23;0.68;;;22.90;96.70;;;;;;5060049;28;20079;-89
2022/06/12 01:07:05;;;;;;;2.22;0.73;;;23.10;96.70;;;;;;5073180;28;20048;-91
2022/06/12 01:09:38;;;;;;;1.40;0.90;;;23.10;96.70;;;;;;5084405;28;20039;-90
2022/06/12 01:12:18;;;;;;;1.45;0.70;;;23.00;96.70;;;;;;5052400;28;20040;-92
2022/06/12 01:14:49;;;;;;;1.73;0.63;;;23.00;96.70;;;;;;5065024;28;20140;-91
2022/06/12 01:17:21;;;;;;;2.50;0.55;;;23.00;96.70;;;;;;5070550;28;20047;-90
2022/06/12 01:19:53;;;;;;;1.98;0.40;;;22.90;96.70;;;;;;5086375;28;20056;-89
2022/06/12 01:22:52;;;;;;;1.02;0.50;;;22.80;96.70;;;;;;5079889;28;20048;-90
2022/06/12 01:26:26;;;;;;;1.65;0.40;;;22.70;96.70;;;;;;5088544;28;20138;-90
2022/06/12 01:29:01;;;;;;;0.80;0.50;;;22.40;96.70;;;;;;5003650;28;20538;-92
2022/06/12 01:31:52;;;;;;;3.40;1.00;;;22.40;96.70;;;;;;5036604;28;20170;-89
2022/06/12 01:34:35;;;;;;;1.05;0.80;;;22.50;96.70;;;;;;5032256;28;20053;-88
2022/06/12 01:37:16;;;;;;;1.10;0.60;;;22.50;96.70;;;;;;5027419;28;20054;-86
2022/06/12 01:39:51;;;;;;;2.40;0.70;;;22.60;96.70;;;;;;5005388;28;20446;-89
2022/06/12 01:42:25;;;;;;;2.70;0.60;;;22.40;96.70;;;;;;5020859;28;20050;-87
2022/06/12 01:45:07;;;;;;;1.20;0.60;;;22.50;96.70;;;;;;5040718;28;20056;-89
2022/06/12 01:47:43;;;;;;;1.60;0.40;;;22.60;96.70;;;;;;5026163;28;20538;-91
2022/06/12 01:50:16;;;;;;;2.60;0.60;;;22.60;96.70;;;;;;5025516;28;20080;-89
2022/06/12 01:52:55;;;;;;;1.90;0.75;;;22.50;96.70;;;;;;5015034;28;20045;-90
2022/06/12 01:55:33;;;;;;;2.67;0.60;;;22.30;96.70;;;;;;5012840;28;20459;-90
2022/06/12 01:58:08;;;;;;;4.40;0.88;;;22.40;96.70;;;;;;5021215;28;20063;-88
2022/06/12 02:00:41;;;;;;;3.40;0.50;;;22.40;96.70;;;;;;5024276;28;20084;-90
2022/06/12 02:03:13;;;;;;;2.17;0.63;;;22.30;96.70;;;;;;5027684;28;20051;-89
2022/06/12 02:05:47;;;;;;;1.80;0.50;;;22.20;96.70;;;;;;5043754;28;20611;-89
2022/06/12 02:08:19;;;;;;;1.02;0.60;;;22.10;96.70;;;;;;5067512;28;20036;-89
2022/06/12 02:10:49;;;;;;;2.17;0.50;;;22.10;96.70;;;;;;5052150;28;20189;-89
2022/06/12 02:13:22;;;;;;;1.70;0.90;;;22.00;96.70;;;;;;5052055;28;20048;-89
2022/06/12 02:15:56;;;;;;;3.40;0.77;;;22.10;96.70;;;;;;5042889;28;20445;-89
2022/06/12 02:18:32;;;;;;;2.80;0.80;;;22.00;96.70;;;;;;5055038;28;20071;-88
2022/06/12 02:21:07;;;;;;;3.15;0.75;;;22.00;96.70;;;;;;5086304;28;20123;-89
2022/06/12 02:23:40;;;;;;;1.35;0.65;;;22.00;96.70;;;;;;5087422;28;20113;-89
2022/06/12 02:26:12;;;;;;;2.88;0.60;;;22.00;96.70;;;;;;5057881;28;20111;-89
2022/06/12 02:28:44;;;;;;;1.25;0.70;;;22.00;96.70;;;;;;5076981;28;20060;-89
2022/06/12 02:31:20;;;;;;;2.40;0.77;;;22.00;96.70;;;;;;5055293;28;20059;-89
2022/06/12 02:33:51;;;;;;;3.13;0.70;;;21.90;96.70;;;;;;5077712;28;20036;-88
2022/06/12 02:36:22;;;;;;;1.80;0.82;;;21.80;96.70;;;;;;5071861;28;20139;-89
2022/06/12 02:38:57;;;;;;;1.33;0.75;;;21.80;96.70;;;;;;5062190;28;20051;-89
2022/06/12 02:41:29;;;;;;;1.85;0.57;;;21.70;96.70;;;;;;5060631;28;20075;-88
2022/06/12 02:44:01;;;;;;;2.50;0.70;;;21.60;96.70;;;;;;5098827;28;20649;-83
2022/06/12 02:46:34;;;;;;;1.20;0.70;;;21.60;96.70;;;;;;5073876;28;20048;-89
2022/06/12 02:49:03;;;;;;;1.60;0.68;;;21.60;96.70;;;;;;5068039;28;20113;-90
2022/06/12 02:51:37;;;;;;;1.42;0.60;;;21.50;96.70;;;;;;5074344;28;20040;-90
2022/06/12 02:54:12;;;;;;;2.20;0.57;;;21.60;96.70;;;;;;5092193;28;20059;-89
2022/06/12 02:56:48;;;;;;;1.33;0.70;;;21.60;96.70;;;;;;5087383;28;20044;-90
2022/06/12 02:59:27;;;;;;;3.88;0.90;;;21.50;96.70;;;;;;5089269;28;20101;-90
2022/06/12 03:02:08;;;;;;;2.40;0.77;;;21.40;96.70;;;;;;5100757;28;20055;-89
2022/06/12 03:04:43;;;;;;;1.48;0.80;;;21.30;96.70;;;;;;5088969;28;20127;-91
2022/06/12 03:07:12;;;;;;;2.33;0.68;;;21.30;96.70;;;;;;5055652;28;20048;-91
2022/06/12 03:09:40;;;;;;;2.65;0.68;;;21.20;96.70;;;;;;5104251;28;20046;-92
2022/06/12 03:12:09;;;;;;;1.60;1.00;;;21.00;96.70;;;;;;5093049;28;20077;-89
2022/06/12 03:14:38;;;;;;;3.47;0.90;;;21.00;96.70;;;;;;5067599;28;20047;-91
2022/06/12 03:17:13;;;;;;;0.90;0.60;;;21.10;96.70;;;;;;5090239;28;20046;-89
2022/06/12 03:19:49;;;;;;;1.50;0.80;;;21.00;96.70;;;;;;5093595;28;20126;-90
2022/06/12 03:22:27;;;;;;;2.13;0.75;;;20.90;96.70;;;;;;5089436;27;20053;-91
2022/06/12 03:25:12;;;;;;;1.00;0.77;;;21.00;96.70;;;;;;5093559;28;20292;-91
2022/06/12 03:28:00;;;;;;;4.57;0.90;;;21.00;96.70;;;;;;5112737;27;20054;-90
2022/06/12 03:30:35;;;;;;;1.77;0.60;;;21.10;96.70;;;;;;5092205;28;20048;-91
2022/06/12 03:33:12;;;;;;;2.22;0.70;;;21.10;96.70;;;;;;5096818;28;20152;-85
2022/06/12 03:35:50;;;;;;;1.73;0.80;;;21.10;96.70;;;;;;5084313;28;20528;-86
2022/06/12 03:38:24;;;;;;;3.05;1.00;;;21.00;96.70;;;;;;5070603;28;20116;-86
2022/06/12 03:41:01;;;;;;;2.35;0.93;;;20.90;96.70;;;;;;5108117;28;20044;-86
2022/06/12 03:43:36;;;;;;;3.08;0.98;;;21.00;96.70;;;;;;5098418;28;20638;-86
2022/06/12 03:46:15;;;;;;;2.97;0.70;;;21.00;96.70;;;;;;5082901;28;20049;-86
2022/06/12 03:48:57;;;;;;;0.60;0.60;;;21.10;96.70;;;;;;5085286;28;20048;-87
2022/06/12 03:51:31;;;;;;;1.40;0.80;;;21.10;96.70;;;;;;5098603;28;20774;-85
2022/06/12 03:54:04;;;;;;;2.15;0.68;;;21.10;96.70;;;;;;5093784;28;20036;-85
2022/06/12 03:59:27;;;;;;;1.75;0.90;;;21.20;96.70;;;;;;5075101;27;20136;-86
2022/06/12 04:01:55;;;;;;;5.43;1.05;;;21.10;96.70;;;;;;5103423;27;20093;-85
2022/06/12 04:04:29;;;;;;;2.65;0.90;;;21.00;96.70;;;;;;5084216;28;20517;-86
2022/06/12 04:07:01;;;;;;;1.67;0.85;;;21.00;96.70;;;;;;5067516;28;20073;-86
2022/06/12 04:09:34;;;;;;;1.77;0.82;;;20.90;96.70;;;;;;5110861;27;20100;-85
2022/06/12 04:12:09;;;;;;;1.52;0.75;;;21.00;96.70;;;;;;5094178;28;20050;-86
2022/06/12 04:14:58;;;;;;;1.65;0.75;;;21.00;96.70;;;;;;5072657;28;20378;-85
2022/06/12 04:17:26;;;;;;;1.63;0.80;;;21.10;96.70;;;;;;5085332;28;20586;-86
2022/06/12 04:19:59;;;;;;;2.25;0.85;;;21.00;96.70;;;;;;5077074;28;20050;-85
2022/06/12 04:22:46;;;;;;;1.67;1.00;;;21.10;96.70;;;;;;5093576;28;20051;-86
2022/06/12 04:25:19;;;;;;;;;;;21.10;96.70;;;;;;5070357;28;20052;-86
2022/06/12 04:27:48;;;;;;;1.40;0.82;;;21.00;96.70;;;;;;5077627;28;19946;-86
2022/06/12 04:30:21;;;;;;;3.13;0.98;;;20.90;96.70;;;;;;5093720;28;20044;-85
2022/06/12 04:32:50;;;;;;;2.42;0.90;;;20.80;96.70;;;;;;5076274;28;20075;-86
2022/06/12 04:35:20;;;;;;;2.40;1.08;;;20.90;96.70;;;;;;5076706;28;20040;-85
2022/06/12 04:37:49;;;;;;;2.42;1.30;;;21.00;96.70;;;;;;5073371;28;20051;-86
2022/06/12 04:40:24;;;;;;;1.75;0.95;;;21.10;96.70;;;;;;5093533;28;20040;-87
2022/06/12 04:42:53;;;;;;;5.63;1.40;;;21.10;96.70;;;;;;5091721;28;20047;-85
2022/06/12 04:45:26;;;;;;;4.78;1.40;;;21.10;96.70;;;;;;5068936;28;20044;-85
2022/06/12 04:47:55;;;;;;;1.83;1.17;;;21.20;96.70;;;;;;5101210;27;20047;-85
2022/06/12 04:50:24;;;;;;;3.22;0.98;;;21.40;96.70;;;;;;5075798;28;20429;-85
2022/06/12 04:52:53;;;;;;;2.33;1.10;;;21.30;96.70;;;;;;5114601;27;20046;-86
2022/06/12 04:55:21;;;;;;;3.45;1.10;;;21.30;96.70;;;;;;5092602;28;20136;-87
2022/06/12 04:57:49;;;;;;;1.73;1.08;;;21.30;96.70;;;;;;5078465;28;20058;-86
2022/06/12 05:00:19;;;;;;;2.60;1.00;;;21.40;96.70;;;;;;5113045;27;20044;-86
2022/06/12 05:02:48;;;;;;;3.53;1.00;;;21.50;96.70;;;;;;5105925;27;20142;-86
2022/06/12 05:05:16;;;;;;;2.78;0.95;;;21.50;96.70;;;;;;5099039;28;20493;-86
2022/06/12 05:07:46;;;;;;;3.72;1.05;;;21.60;96.70;;;;;;5102175;28;20063;-86
2022/06/12 05:10:15;;;;;;;1.83;1.10;;;21.50;96.70;;;;;;5092586;28;20047;-85
2022/06/12 05:12:44;;;;;;;4.00;1.52;;;21.60;96.70;;;;;;5088209;27;20102;-84
2022/06/12 05:15:13;;;;;;;3.33;1.30;;;21.70;96.70;;;;;;5077459;28;20051;-85
2022/06/12 05:17:43;;;;;;;2.13;1.25;;;21.80;96.70;;;;;;5091359;28;20489;-86
2022/06/12 05:20:16;;;;;;;3.35;1.88;;;21.80;96.70;;;;;;5090869;28;20040;-86
2022/06/12 05:22:46;;;;;;;3.25;1.33;;;21.40;96.70;;;;;;5074127;28;20040;-86
2022/06/12 05:25:17;;;;;;;2.75;1.15;;;21.60;96.70;;;;;;5109265;27;20062;-85
2022/06/12 05:28:06;;;;;;;3.03;1.17;;;21.60;96.70;;;;;;5019477;28;20581;-85
2022/06/12 05:30:35;;;;;;;1.75;1.20;;;21.60;96.70;;;;;;5037470;28;20913;-86
2022/06/12 05:33:03;;;;;;;2.03;1.33;;;21.80;96.70;;;;;;5020346;28;20149;-85
2022/06/12 05:35:33;;;;;;;3.53;1.67;;;21.90;96.70;;;;;;5018564;28;20046;-85
2022/06/12 05:38:03;;;;;;;4.78;1.95;;;21.80;96.70;;;;;;5011643;28;20530;-86
2022/06/12 05:40:38;;;;;;;9.00;2.30;;;21.60;96.70;;;;;;5030798;28;20068;-87
2022/06/12 05:43:06;;;;;;;3.33;2.00;;;21.50;96.70;;;;;;5032074;28;20565;-86
2022/06/12 05:45:34;;;;;;;4.93;1.92;;;21.60;96.70;;;;;;5026803;28;20046;-88
2022/06/12 05:48:07;;;;;;;5.63;1.77;;;21.80;96.70;;;;;;5026973;28;20045;-86
2022/06/12 05:50:43;;;;;;;2.85;1.58;;;21.90;96.70;;;;;;5011030;28;20076;-84
2022/06/12 05:53:13;;;;;;;2.23;1.43;;;22.00;96.70;;;;;;4997757;28;20144;-80
2022/06/12 05:55:44;;;;;;;2.38;1.50;;;22.20;96.70;;;;;;5024200;28;20361;-87
2022/06/12 05:58:12;;;;;;;3.60;1.70;;;22.30;96.70;;;;;;5028901;28;20052;-86
2022/06/12 06:00:44;;;;;;;2.33;1.50;;;22.20;96.70;;;;;;5092305;27;20052;-86
2022/06/12 06:03:13;;;;;;;4.30;1.73;;;22.30;96.70;;;;;;5115843;27;20059;-86
2022/06/12 06:05:42;;;;;;;2.63;1.45;;;22.40;96.70;;;;;;5104083;28;20040;-86
2022/06/12 06:08:12;;;;;;;4.47;1.45;;;22.40;96.70;;;;;;5096402;27;20107;-86
2022/06/12 06:10:42;;;;;;;3.65;1.40;;;22.50;96.70;;;;;;5108190;27;20135;-87
2022/06/12 06:13:10;;;;;;;1.70;1.33;;;22.50;96.70;;;;;;5084997;28;20112;-86
2022/06/12 06:15:39;;;;;;;3.45;1.23;;;22.50;96.70;;;;;;5120277;27;20043;-87
2022/06/12 06:18:07;;;;;;;4.35;1.40;;;22.60;96.70;;;;;;5090806;28;20044;-86
2022/06/12 06:20:38;;;;;;;4.32;1.50;;;22.70;96.70;;;;;;5100774;28;20067;-86
2022/06/12 06:23:07;;;;;;;2.30;1.48;;;22.70;96.70;;;;;;5090079;28;20047;-85
2022/06/12 06:25:38;;;;;;;2.15;1.50;;;22.90;96.70;;;;;;5097157;27;20116;-86
2022/06/12 06:28:08;;;;;;;2.72;1.58;;;22.90;96.70;;;;;;5104679;27;20109;-85
2022/06/12 06:30:37;;;;;;;4.05;1.65;;;23.10;96.70;;;;;;5091166;28;20045;-87
2022/06/12 06:33:07;;;;;;;6.63;2.00;;;23.10;96.70;;;;;;5090067;28;20103;-86
2022/06/12 06:35:35;;;;;;;3.13;1.70;;;23.10;96.70;;;;;;5090511;28;20040;-87
2022/06/12 06:38:03;;;;;;;2.83;1.60;;;23.10;96.70;;;;;;5100397;27;20050;-86
2022/06/12 06:40:32;;;;;;;3.15;1.52;;;23.10;96.70;;;;;;5101685;27;20047;-86
2022/06/12 06:43:08;;;;;;;4.82;2.08;;;23.00;96.70;;;;;;5095499;28;20075;-86
2022/06/12 06:48:24;;;;;;;2.33;1.80;;;23.20;96.70;;;;;;5081946;28;20408;-86
2022/06/12 06:50:53;;;;;;;3.67;1.75;;;23.20;96.70;;;;;;5077951;27;20161;-86
2022/06/12 06:53:21;;;;;;;3.30;2.70;;;23.30;96.70;;;;;;5095359;28;20051;-86
2022/06/12 06:55:50;;;;;;;3.42;2.53;;;23.40;96.70;;;;;;5091996;28;20722;-87
2022/06/12 06:58:22;;;;;;;3.65;2.90;;;23.40;96.70;;;;;;5106596;27;20050;-87
2022/06/12 07:00:52;;;;;;;3.75;2.25;;;23.50;96.70;;;;;;5073474;27;20090;-86
2022/06/12 07:03:20;;;;;;;3.00;2.53;;;23.50;96.70;;;;;;5100326;28;20039;-86
2022/06/12 07:05:51;;;;;;;4.30;2.42;;;23.60;96.70;;;;;;5088196;28;20081;-85
2022/06/12 07:08:20;;;;;;;4.05;2.30;;;23.80;96.70;;;;;;5103667;27;20552;-86
2022/06/12 07:10:50;;;;;;;3.33;2.30;;;23.90;96.70;;;;;;5108348;27;20434;-87
2022/06/12 07:13:20;;;;;;;6.05;2.53;;;24.00;96.70;;;;;;5104919;28;20039;-86
2022/06/12 07:15:48;;;;;;;5.20;2.70;;;24.00;96.70;;;;;;5107194;28;20388;-85
2022/06/12 07:18:18;;;;;;;5.20;3.20;;;24.10;96.70;;;;;;5090439;28;20058;-86
2022/06/12 07:20:49;;;;;;;4.88;2.33;;;24.30;96.70;;;;;;5080769;28;20438;-87
2022/06/12 07:23:19;;;;;;;6.40;3.50;;;24.40;96.70;;;;;;5091772;27;20054;-86
2022/06/12 07:25:50;;;;;;;4.78;2.83;;;24.30;96.70;;;;;;5085148;27;20043;-86
2022/06/12 07:28:26;;;;;;;4.82;2.63;;;24.50;96.70;;;;;;5106324;28;20051;-86
2022/06/12 07:30:55;;;;;;;6.72;2.85;;;24.60;96.70;;;;;;5086469;28;20147;-86
2022/06/12 07:33:23;;;;;;;5.60;3.03;;;24.80;96.70;;;;;;5064975;28;20490;-82
2022/06/12 07:35:51;;;;;;;5.43;3.10;;;24.80;96.70;;;;;;5086210;28;20075;-82
2022/06/12 07:38:22;;;;;;;7.53;2.92;;;24.80;96.70;;;;;;5072695;28;20508;-81
2022/06/12 07:40:52;;;;;;;4.90;3.28;;;24.80;96.70;;;;;;5096305;28;20166;-87
2022/06/12 07:43:22;;;;;;;5.97;3.40;;;24.90;96.70;;;;;;5096889;28;20040;-85
2022/06/12 07:45:53;;;;;;;5.82;3.50;;;25.00;96.70;;;;;;5072489;28;20052;-85
2022/06/12 07:48:22;;;;;;;4.63;3.05;;;25.10;96.70;;;;;;5087607;28;20453;-83
2022/06/12 07:50:51;;;;;;;4.82;3.05;;;25.10;96.70;;;;;;5083704;28;20215;-82
2022/06/12 07:53:20;;;;;;;5.53;3.38;;;25.20;96.70;;;;;;5080997;28;20050;-85
2022/06/12 07:55:50;;;;;;;4.63;3.28;;;25.30;96.70;;;;;;5069035;28;20052;-80
2022/06/12 07:58:19;;;;;;;9.90;7.22;;;25.40;96.70;;;;;;5107297;28;20051;-86
2022/06/12 08:00:53;;;;;;;6.25;3.95;;;25.50;96.70;;;;;;5097232;28;20053;-87
2022/06/12 08:03:22;;;;;;;6.38;3.65;;;25.60;96.70;;;;;;5092844;28;20126;-90
2022/06/12 08:05:51;;;;;;;6.70;3.30;;;25.80;96.70;;;;;;5091209;28;20043;-89
2022/06/12 08:08:19;;;;;;;5.32;3.80;;;25.80;96.70;;;;;;5086141;28;20143;-89
2022/06/12 08:10:47;;;;;;;4.25;2.92;;;25.90;96.70;;;;;;5091356;28;20061;-90
2022/06/12 08:13:15;;;;;;;5.35;2.65;;;26.00;96.70;;;;;;5085857;28;20090;-83
2022/06/12 08:15:50;;;;;;;3.70;2.30;;;26.00;96.70;;;;;;5089421;28;20171;-83
2022/06/12 08:18:21;;;;;;;3.78;2.58;;;26.00;96.70;;;;;;5087111;28;20044;-83
2022/06/12 08:20:53;;;;;;;4.80;2.40;;;26.10;96.70;;;;;;5086639;28;20381;-92
2022/06/12 08:23:27;;;;;;;4.32;2.35;;;26.30;96.70;;;;;;5099132;28;20153;-91
2022/06/12 08:25:58;;;;;;;3.08;1.75;;;26.40;96.70;;;;;;5109156;28;20047;-90
2022/06/12 08:28:29;;;;;;;2.80;1.98;;;26.60;96.70;;;;;;5094788;28;20059;-91
2022/06/12 08:31:01;;;;;;;3.20;1.70;;;26.70;96.70;;;;;;5070293;28;20639;-91
2022/06/12 08:33:31;;;;;;;2.85;2.15;;;26.70;96.70;;;;;;5074727;28;20104;-90
2022/06/12 08:35:59;;;;;;;3.90;1.88;;;26.90;96.70;;;;;;5086953;28;20589;-84
2022/06/12 08:38:27;;;;;;;10.18;8.93;;;27.00;96.70;;;;;;5063792;28;20036;-84
2022/06/12 08:41:02;;;;;;;4.18;2.33;;;27.10;96.70;;;;;;5080364;28;20058;-86
2022/06/12 08:43:35;;;;;;;2.85;1.63;;;27.10;96.70;;;;;;5104586;28;20295;-84
2022/06/12 08:46:09;;;;;;;3.25;1.83;;;27.20;96.70;;;;;;5077612;28;20050;-85
2022/06/12 08:48:45;;;;;;;2.53;1.70;;;27.30;96.70;;;;;;5087752;27;20063;-82
2022/06/12 08:51:24;;;;;;;3.13;1.67;;;27.40;96.70;;;;;;5098524;27;20039;-81
2022/06/12 08:53:56;;;;;;;2.78;1.63;;;27.40;96.70;;;;;;5078580;28;20055;-82
2022/06/12 08:56:31;;;;;;;10.77;2.13;;;27.50;96.70;;;;;;5084046;27;20581;-84
2022/06/12 08:59:04;;;;;;;2.10;1.48;;;27.60;96.70;;;;;;5088688;28;20516;-84
2022/06/12 09:01:35;;;;;;;2.28;1.52;;;27.70;96.70;;;;;;5076236;28;20116;-84
2022/06/12 09:04:04;;;;;;;3.03;1.70;;;27.80;96.70;;;;;;5092003;28;20112;-82
2022/06/12 09:06:43;;;;;;;3.70;1.77;;;28.00;96.70;;;;;;5092118;27;20063;-84
2022/06/12 09:09:20;;;;;;;1.67;1.40;;;28.00;96.70;;;;;;5105534;27;20088;-83
2022/06/12 09:11:51;;;;;;;3.17;1.63;;;28.10;96.70;;;;;;5081626;28;20040;-83
2022/06/12 09:14:34;;;;;;;3.08;1.50;;;28.20;96.60;;;;;;5080573;28;20138;-83
2022/06/12 09:17:10;;;;;;;1.83;1.40;;;28.30;96.30;;;;;;5091820;27;20426;-82
2022/06/12 09:19:49;;;;;;;5.00;1.63;;;28.40;95.60;;;;;;5077702;28;20055;-81
2022/06/12 09:22:25;;;;;;;1.70;1.42;;;28.50;95.20;;;;;;5060856;28;20048;-82
2022/06/12 09:25:03;;;;;;;1.80;1.65;;;28.50;95.60;;;;;;5076102;27;20067;-84
2022/06/12 09:27:38;;;;;;;1.65;1.10;;;28.60;95.00;;;;;;5094554;28;20048;-85
2022/06/12 09:30:12;;;;;;;2.37;1.70;;;28.70;93.70;;;;;;5098986;27;20051;-83
2022/06/12 09:32:55;;;;;;;1.98;1.42;;;28.80;94.00;;;;;;5099269;28;20044;-82
2022/06/12 09:35:38;;;;;;;2.03;1.40;;;28.80;93.60;;;;;;5084027;28;20040;-81
2022/06/12 09:38:22;;;;;;;3.63;1.33;;;28.70;92.70;;;;;;5080793;28;20044;-81
2022/06/12 09:41:02;;;;;;;1.63;1.52;;;28.80;93.90;;;;;;5098138;28;20043;-82
2022/06/12 09:43:39;;;;;;;1.48;1.35;;;28.80;93.60;;;;;;5082214;28;20043;-81
2022/06/12 09:46:19;;;;;;;1.58;1.38;;;28.90;93.70;;;;;;5095175;27;20897;-83
2022/06/12 09:48:57;;;;;;;1.98;1.55;;;29.00;93.30;;;;;;5087015;27;20056;-81
2022/06/12 09:51:50;;;;;;;1.30;1.10;;;29.00;92.40;;;;;;5083232;28;20097;-81
2022/06/12 09:54:38;;;;;;;2.40;1.60;;;29.10;92.50;;;;;;5080369;28;20059;-81
2022/06/12 09:57:18;;;;;;;3.00;1.60;;;29.40;92.00;;;;;;5099313;28;20088;-82
2022/06/12 09:59:54;;;;;;;1.92;1.13;;;29.30;90.40;;;;;;5090866;28;20055;-82
2022/06/12 10:02:30;;;;;;;3.20;1.23;;;29.20;90.30;;;;;;5092427;27;20043;-84
2022/06/12 10:05:03;;;;;;;1.58;1.17;;;29.50;90.90;;;;;;5078775;28;20055;-86
2022/06/12 10:07:42;;;;;;;2.67;1.20;;;29.80;88.80;;;;;;5067176;27;20138;-84
2022/06/12 10:10:19;;;;;;;1.60;1.10;;;29.90;88.90;;;;;;5087404;28;20048;-82
2022/06/12 10:12:52;;;;;;;4.65;1.30;;;29.90;89.10;;;;;;5080002;28;20538;-82
2022/06/12 10:15:25;;;;;;;4.50;1.40;;;30.00;88.00;;;;;;5064041;28;20047;-82
2022/06/12 10:17:57;;;;;;;2.05;1.10;;;30.00;88.20;;;;;;5081320;27;20096;-83
2022/06/12 10:20:29;;;;;;;5.18;1.30;;;29.90;87.80;;;;;;5078003;28;20421;-81
2022/06/12 10:23:00;;;;;;;4.05;1.65;;;30.10;87.40;;;;;;5084783;27;20139;-82
2022/06/12 10:25:34;;;;;;;4.80;1.30;;;30.00;88.10;;;;;;5081626;28;20159;-85
2022/06/12 10:28:05;;;;;;;3.53;1.65;;;30.20;88.40;;;;;;5068475;28;20083;-85
2022/06/12 10:30:37;;;;;;;6.38;1.75;;;30.40;88.60;;;;;;5083301;28;20113;-81
2022/06/12 10:33:18;;;;;;;6.15;1.30;;;30.30;88.00;;;;;;5079572;28;20137;-82
2022/06/12 10:35:49;;;;;;;7.75;6.80;;;30.50;88.60;;;;;;5085181;28;20047;-81
2022/06/12 10:38:21;;;;;;;3.35;2.53;;;30.60;88.00;;;;;;5068232;28;20048;-83
2022/06/12 10:40:56;;;;;;;3.08;1.50;;;30.50;88.30;;;;;;5081974;28;20051;-88
2022/06/12 10:43:29;;;;;;;1.50;1.20;;;30.70;88.40;;;;;;5071093;28;20070;-82
2022/06/12 10:46:05;;;;;;;1.45;1.23;;;30.90;88.00;;;;;;5051744;28;20055;-86
2022/06/12 10:48:35;;;;;;;2.40;1.35;;;30.90;85.90;;;;;;5088149;28;20051;-83
2022/06/12 10:51:21;;;;;;;1.20;0.93;;;30.90;87.10;;;;;;5045281;28;20051;-87
2022/06/12 10:53:59;;;;;;;1.35;1.20;;;31.00;87.30;;;;;;5089987;28;20047;-85
2022/06/12 10:56:34;;;;;;;1.17;1.08;;;30.90;85.80;;;;;;5090586;28;20082;-85
2022/06/12 10:59:28;;;;;;;2.00;1.00;;;30.90;86.50;;;;;;5068542;28;20378;-84
2022/06/12 11:02:31;;;;;;;2.95;1.55;;;31.10;86.40;;;;;;5079467;28;20807;-84
2022/06/12 11:05:22;;;;;;;1.98;1.15;;;31.30;84.80;;;;;;5070439;28;20104;-87
2022/06/12 11:07:58;;;;;;;2.80;1.13;;;31.40;85.10;;;;;;5076247;28;20056;-84
2022/06/12 11:10:38;;;;;;;1.73;1.10;;;31.40;85.10;;;;;;5089299;28;20055;-83
2022/06/12 11:13:43;;;;;;;2.55;1.20;;;31.60;85.40;;;;;;5072268;28;20044;-82
2022/06/12 11:16:27;;;;;;;1.10;0.98;;;31.70;84.80;;;;;;5078124;28;20071;-83
2022/06/12 11:19:19;;;;;;;3.85;1.38;;;31.60;84.50;;;;;;5082238;28;20128;-84
2022/06/12 11:21:59;;;;;;;1.60;1.38;;;31.80;83.80;;;;;;5070188;28;20047;-83
2022/06/12 11:24:45;;;;;;;1.23;1.13;;;31.90;83.60;;;;;;5080784;28;20047;-84
2022/06/12 11:27:43;;;;;;;1.17;1.08;;;31.90;83.80;;;;;;5087402;28;20533;-83
2022/06/12 11:30:25;;;;;;;2.03;1.48;;;31.90;84.30;;;;;;5065096;28;20204;-85
2022/06/12 11:33:12;;;;;;;3.40;1.40;;;32.00;84.40;;;;;;5092490;28;20047;-85
2022/06/12 11:35:52;;;;;;;2.40;1.23;;;32.00;84.00;;;;;;5089728;28;20052;-88
2022/06/12 11:38:35;;;;;;;6.45;1.50;;;32.20;85.10;;;;;;5089217;28;20047;-87
2022/06/12 11:41:11;;;;;;;2.88;1.33;;;32.50;84.70;;;;;;5073898;28;20056;-85
2022/06/12 11:43:42;;;;;;;;;;;32.40;84.00;;;;;;5085049;28;20047;-81
2022/06/12 11:46:23;;;;;;;2.63;1.10;;;32.30;83.70;;;;;;5078727;28;20402;-82
2022/06/12 11:49:27;;;;;;;1.23;1.10;;;32.40;84.30;;;;;;5098601;28;20126;-82
2022/06/12 11:52:07;;;;;;;2.92;1.30;;;32.40;83.30;;;;;;5078748;28;20040;-80
2022/06/12 11:55:04;;;;;;;1.67;1.00;;;32.50;83.50;;;;;;5107618;28;20054;-89
2022/06/12 11:57:44;;;;;;;2.58;1.48;;;32.40;83.80;;;;;;5067551;28;20556;-84
2022/06/12 12:00:17;;;;;;;2.60;1.30;;;32.40;83.00;;;;;;5089404;28;20160;-82
2022/06/12 12:03:11;;;;;;;1.50;1.17;;;32.50;82.90;;;;;;5079620;28;20051;-83
2022/06/12 12:05:49;;;;;;;1.60;1.25;;;32.70;83.50;;;;;;5103736;28;20046;-84
2022/06/12 12:08:31;;;;;;;1.27;1.17;;;32.80;82.30;;;;;;5076723;28;20044;-82
2022/06/12 12:11:04;;;;;;;1.10;1.00;;;32.90;83.00;;;;;;5080311;28;20126;-84
2022/06/12 12:13:42;;;;;;;1.10;1.08;;;32.80;82.00;;;;;;5097818;28;20047;-83
2022/06/12 12:16:25;;;;;;;1.58;1.17;;;33.00;82.20;;;;;;5100185;28;20054;-86
2022/06/12 12:18:58;;;;;;;2.53;1.08;;;33.10;81.30;;;;;;5081214;28;20040;-80
2022/06/12 12:21:31;;;;;;;1.38;0.95;;;33.30;81.70;;;;;;5107957;27;20036;-85
2022/06/12 12:24:01;;;;;;;0.95;0.82;;;33.60;80.30;;;;;;5091157;28;20051;-88
2022/06/12 12:26:33;;;;;;;2.05;1.80;;;33.70;81.10;;;;;;5103866;28;20046;-90
2022/06/12 12:29:04;;;;;;;1.10;1.00;;;33.50;81.10;;;;;;5079600;28;20098;-83
2022/06/12 12:31:37;;;;;;;1.60;1.10;;;33.30;80.70;;;;;;5062019;28;20055;-81
2022/06/12 12:34:08;;;;;;;3.38;1.17;;;33.10;81.00;;;;;;5069230;28;20051;-86
2022/06/12 12:42:25;;;;;;;2.03;1.10;;;33.00;80.80;;;;;;5063164;28;20584;-84
2022/06/12 12:44:56;;;;;;;2.50;1.00;;;33.30;82.50;;;;;;5069367;28;20048;-83
2022/06/12 12:47:28;;;;;;;2.72;1.23;;;33.60;82.10;;;;;;5085850;28;20472;-86
2022/06/12 12:50:08;;;;;;;1.55;0.90;;;33.60;81.90;;;;;;5066017;28;20512;-83
2022/06/12 12:52:44;;;;;;;1.05;0.95;;;33.70;80.80;;;;;;5066060;28;20044;-85
2022/06/12 12:55:24;;;;;;;1.55;1.30;;;33.50;80.70;;;;;;5087128;28;20066;-83
2022/06/12 12:57:53;;;;;;;1.33;0.95;;;33.10;80.20;;;;;;5087514;28;20040;-80
2022/06/12 13:00:33;;;;;;;1.38;1.10;;;33.20;80.60;;;;;;5044208;28;20139;-83
2022/06/12 13:03:11;;;;;;;1.98;1.45;;;33.50;80.50;;;;;;5067945;28;20310;-84
2022/06/12 13:06:14;;;;;;;1.58;1.05;;;33.80;80.20;;;;;;5085311;28;20139;-87
2022/06/12 13:09:03;;;;;;;6.88;5.50;;;34.20;79.60;;;;;;5082158;28;20093;-81
2022/06/12 13:11:47;;;;;;;2.72;1.98;;;34.30;80.10;;;;;;5047687;28;20603;-82
2022/06/12 13:14:39;;;;;;;3.13;1.00;;;34.30;81.00;;;;;;5067595;28;20055;-80
2022/06/12 13:17:22;;;;;;;2.60;1.05;;;34.30;80.40;;;;;;5064405;28;20058;-79
2022/06/12 13:20:09;;;;;;;2.03;1.35;;;34.30;80.50;;;;;;5050184;28;20397;-79
2022/06/12 13:22:51;;;;;;;2.03;0.93;;;34.30;80.80;;;;;;5083826;28;20051;-81
2022/06/12 13:25:42;;;;;;;1.25;1.00;;;34.20;81.40;;;;;;5062877;28;20055;-79
2022/06/12 13:28:20;;;;;;;0.90;0.80;;;34.50;80.90;;;;;;5054127;28;20086;-79
2022/06/12 13:30:50;;;;;;;2.15;1.20;;;34.40;80.10;;;;;;5044774;28;20074;-78
2022/06/12 13:33:21;;;;;;;1.95;0.90;;;34.50;79.80;;;;;;5041316;28;20080;-80
2022/06/12 13:35:54;;;;;;;3.25;0.95;;;34.60;80.20;;;;;;5034380;28;20106;-80
2022/06/12 13:38:25;;;;;;;2.45;1.00;;;34.80;79.30;;;;;;5039725;28;20073;-80
2022/06/12 13:40:58;;;;;;;2.40;1.00;;;34.90;79.20;;;;;;5037873;28;20060;-80